Time;durP1;ratioP1;P1;durP2;ratioP2;P2;SDS_P1;SDS_P2;PMS_P1;PMS_P2;Temp;Humidity;BMP_temperature;BMP_pressure;BME280_temperature;BME280_humidity;BME280_pressure;Samples;Min_cycle;Max_cycle;Signal;HPM_P1;HPM_P2
2021/06/03 00:00:44;;;;;;;6.95;4.75;;;;;;;;;;5023557;28;20029;-47
2021/06/03 00:03:10;;;;;;;8.13;4.45;;;;;;;;;;5013739;28;20036;-47
2021/06/03 00:05:41;;;;;;;5.97;3.92;;;;;;;;;;5013302;28;20030;-50
2021/06/03 00:08:07;;;;;;;7.82;4.45;;;;;;;;;;5016713;28;20026;-49
2021/06/03 00:10:35;;;;;;;5.97;3.80;;;;;;;;;;5014331;28;20101;-47
2021/06/03 00:13:01;;;;;;;8.25;4.90;;;;;;;;;;5012967;28;20041;-47
2021/06/03 00:15:28;;;;;;;6.53;4.22;;;;;;;;;;5022189;28;20056;-47
2021/06/03 00:17:54;;;;;;;7.40;4.85;;;;;;;;;;5016333;28;20121;-47
2021/06/03 00:20:22;;;;;;;5.90;4.03;;;;;;;;;;5018939;28;20065;-47
2021/06/03 00:22:49;;;;;;;6.50;4.32;;;;;;;;;;5020052;28;20026;-47
2021/06/03 00:25:15;;;;;;;8.30;4.68;;;;;;;;;;5013536;28;20500;-48
2021/06/03 00:27:41;;;;;;;6.80;4.10;;;;;;;;;;5020548;28;20500;-47
2021/06/03 00:30:07;;;;;;;7.63;4.55;;;;;;;;;;5023894;28;20103;-47
2021/06/03 00:32:33;;;;;;;6.28;4.30;;;;;;;;;;5015147;28;20030;-47
2021/06/03 00:34:59;;;;;;;5.28;3.85;;;;;;;;;;5020084;28;20436;-52
2021/06/03 00:37:26;;;;;;;6.95;4.30;;;;;;;;;;5016536;28;20034;-47
2021/06/03 00:39:52;;;;;;;11.10;4.40;;;;;;;;;;5019020;28;20849;-48
2021/06/03 00:42:18;;;;;;;9.85;4.95;;;;;;;;;;5026188;28;20029;-49
2021/06/03 00:44:44;;;;;;;7.03;3.90;;;;;;;;;;5015727;28;20030;-47
2021/06/03 00:47:10;;;;;;;7.57;4.38;;;;;;;;;;5016611;28;20026;-47
2021/06/03 00:49:36;;;;;;;6.35;3.85;;;;;;;;;;5019030;28;20436;-47
2021/06/03 00:52:03;;;;;;;5.60;3.80;;;;;;;;;;5026134;28;20033;-47
2021/06/03 00:54:29;;;;;;;8.50;4.57;;;;;;;;;;5012177;28;20492;-47
2021/06/03 00:56:55;;;;;;;6.78;4.30;;;;;;;;;;5011683;28;20108;-48
2021/06/03 00:59:21;;;;;;;6.57;4.35;;;;;;;;;;5019230;28;20017;-47
2021/06/03 01:01:47;;;;;;;9.73;4.30;;;;;;;;;;5022271;28;20038;-47
2021/06/03 01:04:17;;;;;;;9.25;4.50;;;;;;;;;;5024825;28;20377;-47
2021/06/03 01:06:43;;;;;;;8.70;4.50;;;;;;;;;;5025869;28;20037;-48
2021/06/03 01:09:14;;;;;;;5.93;4.30;;;;;;;;;;5013940;28;20029;-47
2021/06/03 01:11:42;;;;;;;6.63;4.15;;;;;;;;;;5012683;28;20108;-49
2021/06/03 01:14:11;;;;;;;8.60;4.35;;;;;;;;;;5015529;28;20080;-47
2021/06/03 01:16:37;;;;;;;7.28;4.03;;;;;;;;;;5018104;28;20044;-48
2021/06/03 01:19:05;;;;;;;7.75;4.20;;;;;;;;;;5012965;28;20127;-47
2021/06/03 01:21:44;;;;;;;6.93;4.55;;;;;;;;;;5014599;28;20533;-47
2021/06/03 01:24:20;;;;;;;5.78;4.15;;;;;;;;;;5027585;28;20084;-47
2021/06/03 01:26:46;;;;;;;5.03;4.00;;;;;;;;;;5017307;28;20541;-47
2021/06/03 01:29:15;;;;;;;6.68;4.55;;;;;;;;;;5012524;28;20432;-47
2021/06/03 01:31:42;;;;;;;6.63;4.40;;;;;;;;;;5016539;28;20049;-47
2021/06/03 01:34:08;;;;;;;9.80;4.55;;;;;;;;;;5019492;28;20040;-47
2021/06/03 01:36:34;;;;;;;8.27;4.68;;;;;;;;;;5030453;28;20091;-48
2021/06/03 01:39:01;;;;;;;6.40;4.45;;;;;;;;;;5019636;28;20034;-47
2021/06/03 01:41:27;;;;;;;6.80;4.43;;;;;;;;;;5012075;28;20038;-47
2021/06/03 01:43:54;;;;;;;6.57;4.45;;;;;;;;;;5019180;28;20072;-47
2021/06/03 01:46:22;;;;;;;7.78;5.07;;;;;;;;;;5017919;28;20220;-47
2021/06/03 01:48:48;;;;;;;7.57;4.43;;;;;;;;;;5019831;28;20033;-47
2021/06/03 01:51:15;;;;;;;9.57;4.97;;;;;;;;;;5014844;28;20065;-48
2021/06/03 01:53:41;;;;;;;7.68;4.57;;;;;;;;;;5015400;28;20029;-50
2021/06/03 01:56:11;;;;;;;7.22;4.93;;;;;;;;;;5012976;28;20474;-47
2021/06/03 01:58:37;;;;;;;10.23;5.00;;;;;;;;;;5019042;28;20026;-47
2021/06/03 02:01:03;;;;;;;8.93;4.50;;;;;;;;;;5022611;28;20104;-47
2021/06/03 02:03:29;;;;;;;8.65;4.45;;;;;;;;;;5014780;28;20048;-47
2021/06/03 02:05:55;;;;;;;6.70;4.53;;;;;;;;;;5031306;28;20034;-47
2021/06/03 02:08:22;;;;;;;6.88;4.25;;;;;;;;;;5025884;28;20087;-47
2021/06/03 02:10:48;;;;;;;6.53;4.78;;;;;;;;;;5015728;28;20128;-47
2021/06/03 02:13:16;;;;;;;6.70;5.10;;;;;;;;;;5025713;28;20034;-48
2021/06/03 02:15:49;;;;;;;6.63;4.55;;;;;;;;;;5020410;28;20556;-47
2021/06/03 02:18:17;;;;;;;11.90;5.75;;;;;;;;;;5028716;28;20022;-47
2021/06/03 02:20:46;;;;;;;7.95;4.43;;;;;;;;;;5023257;28;20064;-47
2021/06/03 02:23:13;;;;;;;9.02;4.95;;;;;;;;;;5023442;28;20029;-47
2021/06/03 02:25:39;;;;;;;11.38;5.07;;;;;;;;;;5026964;28;20112;-48
2021/06/03 02:28:05;;;;;;;7.43;5.03;;;;;;;;;;5027033;28;20470;-47
2021/06/03 02:30:32;;;;;;;7.07;5.05;;;;;;;;;;5024968;28;20041;-48
2021/06/03 02:33:02;;;;;;;7.22;4.30;;;;;;;;;;5023939;28;20042;-47
2021/06/03 02:35:28;;;;;;;7.47;4.65;;;;;;;;;;5017259;28;20030;-47
2021/06/03 02:37:54;;;;;;;9.38;4.72;;;;;;;;;;5026273;28;20880;-47
2021/06/03 02:40:22;;;;;;;7.03;4.85;;;;;;;;;;5026692;28;20049;-47
2021/06/03 02:42:50;;;;;;;7.07;4.45;;;;;;;;;;5018074;28;20034;-47
2021/06/03 02:45:18;;;;;;;9.57;4.78;;;;;;;;;;5019652;28;20029;-47
2021/06/03 02:47:45;;;;;;;6.03;4.53;;;;;;;;;;5016114;28;20924;-47
2021/06/03 02:50:12;;;;;;;6.60;4.75;;;;;;;;;;5021330;28;20022;-47
2021/06/03 02:52:38;;;;;;;6.32;4.50;;;;;;;;;;5014952;28;20114;-47
2021/06/03 02:55:09;;;;;;;5.50;3.97;;;;;;;;;;5014818;28;20030;-47
2021/06/03 02:57:35;;;;;;;6.63;4.57;;;;;;;;;;5026940;28;20416;-47
2021/06/03 03:00:01;;;;;;;7.05;4.10;;;;;;;;;;5025285;28;20037;-47
2021/06/03 03:02:27;;;;;;;7.10;4.00;;;;;;;;;;5021463;28;20084;-47
2021/06/03 03:04:52;;;;;;;5.93;4.38;;;;;;;;;;5026007;28;20045;-48
2021/06/03 03:07:18;;;;;;;7.20;4.40;;;;;;;;;;5021997;28;20030;-47
2021/06/03 03:09:44;;;;;;;7.38;4.78;;;;;;;;;;5022374;28;20029;-47
2021/06/03 03:12:11;;;;;;;8.70;4.45;;;;;;;;;;5024102;28;20029;-47
2021/06/03 03:14:38;;;;;;;8.50;4.68;;;;;;;;;;5015266;28;20429;-47
2021/06/03 03:17:05;;;;;;;7.35;4.93;;;;;;;;;;5027342;28;20034;-47
2021/06/03 03:19:31;;;;;;;8.00;4.90;;;;;;;;;;5024528;28;20105;-47
2021/06/03 03:21:58;;;;;;;8.63;5.00;;;;;;;;;;5032405;28;20045;-47
2021/06/03 03:24:24;;;;;;;8.15;4.60;;;;;;;;;;5015554;28;20409;-47
2021/06/03 03:26:50;;;;;;;8.55;5.25;;;;;;;;;;5022977;28;20029;-47
2021/06/03 03:29:16;;;;;;;7.40;4.32;;;;;;;;;;5015270;28;20033;-48
2021/06/03 03:31:42;;;;;;;8.65;4.97;;;;;;;;;;5017862;28;20100;-48
2021/06/03 03:34:08;;;;;;;5.75;4.28;;;;;;;;;;5011184;28;20113;-47
2021/06/03 03:36:34;;;;;;;7.38;4.55;;;;;;;;;;5025159;28;20022;-47
2021/06/03 03:39:00;;;;;;;7.38;4.53;;;;;;;;;;5013571;28;20030;-47
2021/06/03 03:41:26;;;;;;;6.47;4.35;;;;;;;;;;5027650;28;20481;-47
2021/06/03 03:43:52;;;;;;;7.75;4.35;;;;;;;;;;5014493;28;20165;-47
2021/06/03 03:46:18;;;;;;;4.75;4.00;;;;;;;;;;5014301;28;20038;-47
2021/06/03 03:48:44;;;;;;;9.70;4.35;;;;;;;;;;5015447;28;20029;-47
2021/06/03 03:51:13;;;;;;;6.57;4.00;;;;;;;;;;5024205;28;20057;-47
2021/06/03 03:53:40;;;;;;;10.27;4.93;;;;;;;;;;5018063;28;20034;-47
2021/06/03 03:56:06;;;;;;;6.78;4.50;;;;;;;;;;5019121;28;20111;-47
2021/06/03 03:58:36;;;;;;;10.57;4.72;;;;;;;;;;5019444;28;20063;-47
2021/06/03 04:01:02;;;;;;;8.57;4.80;;;;;;;;;;5027166;28;20079;-47
2021/06/03 04:03:28;;;;;;;7.00;4.30;;;;;;;;;;5014577;28;20421;-47
2021/06/03 04:05:54;;;;;;;5.60;4.05;;;;;;;;;;5027365;28;20033;-47
2021/06/03 04:08:20;;;;;;;13.57;4.60;;;;;;;;;;5015763;28;20100;-47
2021/06/03 04:10:46;;;;;;;7.70;4.30;;;;;;;;;;5013696;28;20030;-47
2021/06/03 04:13:12;;;;;;;7.15;4.63;;;;;;;;;;5016766;28;20049;-49
2021/06/03 04:15:38;;;;;;;9.00;5.28;;;;;;;;;;5023507;28;20450;-47
2021/06/03 04:18:04;;;;;;;10.23;5.00;;;;;;;;;;5018741;28;20370;-47
2021/06/03 04:20:33;;;;;;;6.72;4.65;;;;;;;;;;5024462;28;20040;-47
2021/06/03 04:22:59;;;;;;;6.55;4.70;;;;;;;;;;5023746;28;20465;-47
2021/06/03 04:25:25;;;;;;;8.27;4.53;;;;;;;;;;5015643;28;20088;-48
2021/06/03 04:27:51;;;;;;;6.53;4.70;;;;;;;;;;5019966;28;20029;-47
2021/06/03 04:30:19;;;;;;;9.35;4.63;;;;;;;;;;5018354;28;20056;-49
2021/06/03 04:32:45;;;;;;;9.10;5.65;;;;;;;;;;5014392;28;20041;-47
2021/06/03 04:35:11;;;;;;;7.28;4.43;;;;;;;;;;5017375;28;20119;-47
2021/06/03 04:37:38;;;;;;;8.15;4.63;;;;;;;;;;5014915;28;20128;-47
2021/06/03 04:40:05;;;;;;;11.70;4.90;;;;;;;;;;5012920;28;20018;-47
2021/06/03 04:42:31;;;;;;;7.18;4.97;;;;;;;;;;5012758;28;20030;-47
2021/06/03 04:44:57;;;;;;;8.10;4.30;;;;;;;;;;5015000;28;20037;-47
2021/06/03 04:47:23;;;;;;;7.90;4.43;;;;;;;;;;5028630;28;20163;-47
2021/06/03 04:49:49;;;;;;;7.95;4.45;;;;;;;;;;5021170;28;20025;-47
2021/06/03 04:52:31;;;;;;;10.65;4.53;;;;;;;;;;5018536;28;20116;-50
2021/06/03 04:54:58;;;;;;;8.85;4.85;;;;;;;;;;5011254;28;20033;-50
2021/06/03 04:57:24;;;;;;;8.95;4.53;;;;;;;;;;5017031;28;20022;-48
2021/06/03 04:59:50;;;;;;;7.07;4.25;;;;;;;;;;5021382;28;20077;-47
2021/06/03 05:02:19;;;;;;;9.50;4.65;;;;;;;;;;5013835;28;20045;-47
2021/06/03 05:04:45;;;;;;;8.88;4.40;;;;;;;;;;5022970;28;20383;-47
2021/06/03 05:07:11;;;;;;;6.75;4.43;;;;;;;;;;5025528;28;20030;-47
2021/06/03 05:09:40;;;;;;;8.60;4.40;;;;;;;;;;5017983;28;20518;-47
2021/06/03 05:12:07;;;;;;;8.65;4.30;;;;;;;;;;5018160;28;20040;-48
2021/06/03 05:14:33;;;;;;;7.20;4.47;;;;;;;;;;5015849;28;20065;-47
2021/06/03 05:17:00;;;;;;;5.25;4.00;;;;;;;;;;5015841;28;20030;-48
2021/06/03 05:19:26;;;;;;;8.90;4.47;;;;;;;;;;5014599;28;20450;-47
2021/06/03 05:21:52;;;;;;;9.88;4.55;;;;;;;;;;5018769;28;20029;-48
2021/06/03 05:24:19;;;;;;;11.27;4.97;;;;;;;;;;5017046;28;20058;-48
2021/06/03 05:26:45;;;;;;;6.70;4.80;;;;;;;;;;5016792;28;20397;-48
2021/06/03 05:29:14;;;;;;;6.80;4.10;;;;;;;;;;5015877;28;20034;-48
2021/06/03 05:31:44;;;;;;;9.00;4.38;;;;;;;;;;5011382;28;20044;-47
2021/06/03 05:34:10;;;;;;;7.97;3.80;;;;;;;;;;5013320;28;20513;-51
2021/06/03 05:36:36;;;;;;;6.32;4.25;;;;;;;;;;5021339;28;20021;-50
2021/06/03 05:39:03;;;;;;;7.70;4.35;;;;;;;;;;5023054;28;20030;-47
2021/06/03 05:41:29;;;;;;;11.05;4.45;;;;;;;;;;5022214;28;20040;-48
2021/06/03 05:43:55;;;;;;;5.68;3.67;;;;;;;;;;5022061;28;20033;-47
2021/06/03 05:46:21;;;;;;;8.80;4.05;;;;;;;;;;5025993;28;20029;-47
2021/06/03 05:48:47;;;;;;;5.03;3.92;;;;;;;;;;5016837;28;20541;-49
2021/06/03 05:51:14;;;;;;;8.38;4.30;;;;;;;;;;5014236;28;20034;-50
2021/06/03 05:53:40;;;;;;;12.10;4.32;;;;;;;;;;5016031;28;20572;-47
2021/06/03 05:56:06;;;;;;;7.90;3.92;;;;;;;;;;5016389;28;20108;-51
2021/06/03 05:58:33;;;;;;;7.40;4.30;;;;;;;;;;5017695;28;20026;-48
2021/06/03 06:00:58;;;;;;;8.88;4.25;;;;;;;;;;5016372;28;20037;-50
2021/06/03 06:03:47;;;;;;;6.45;3.58;;;;;;;;;;5015408;28;20014;-47
2021/06/03 06:08:43;;;;;;;7.03;4.25;;;;;;;;;;5021172;28;20045;-48
2021/06/03 06:11:09;;;;;;;8.68;3.78;;;;;;;;;;5015929;28;20053;-51
2021/06/03 06:13:36;;;;;;;7.32;3.80;;;;;;;;;;5020113;28;20108;-49
2021/06/03 06:16:02;;;;;;;8.38;4.15;;;;;;;;;;5022300;28;20025;-51
2021/06/03 06:18:28;;;;;;;5.80;3.50;;;;;;;;;;5027635;28;20417;-48
2021/06/03 06:20:54;;;;;;;11.60;3.70;;;;;;;;;;5014937;28;20490;-52
2021/06/03 06:23:20;;;;;;;6.80;3.53;;;;;;;;;;5029467;28;20033;-52
2021/06/03 06:25:47;;;;;;;9.00;3.95;;;;;;;;;;5032055;28;20417;-50
2021/06/03 06:28:14;;;;;;;6.82;3.85;;;;;;;;;;5029965;28;20037;-49
2021/06/03 06:30:40;;;;;;;5.38;3.67;;;;;;;;;;5023054;28;20068;-50
2021/06/03 06:33:06;;;;;;;6.40;3.78;;;;;;;;;;5019313;28;20116;-49
2021/06/03 06:35:32;;;;;;;8.57;4.28;;;;;;;;;;5022826;28;20049;-49
2021/06/03 06:37:58;;;;;;;5.32;3.10;;;;;;;;;;5018863;28;20026;-49
2021/06/03 06:40:25;;;;;;;7.40;3.42;;;;;;;;;;5026953;28;20376;-49
2021/06/03 06:42:54;;;;;;;7.07;3.28;;;;;;;;;;5031066;28;20458;-50
2021/06/03 06:45:21;;;;;;;7.00;3.45;;;;;;;;;;5017001;28;20061;-48
2021/06/03 06:47:47;;;;;;;6.93;2.65;;;;;;;;;;5030858;28;20030;-51
2021/06/03 06:50:13;;;;;;;6.78;3.28;;;;;;;;;;5019694;28;20120;-49
2021/06/03 06:52:40;;;;;;;7.38;3.33;;;;;;;;;;5027637;28;20063;-53
2021/06/03 06:55:07;;;;;;;5.78;3.30;;;;;;;;;;5027813;28;20017;-48
2021/06/03 06:57:33;;;;;;;8.02;3.53;;;;;;;;;;5022701;28;20025;-48
2021/06/03 06:59:59;;;;;;;6.68;3.40;;;;;;;;;;5025804;28;20100;-53
2021/06/03 07:02:25;;;;;;;15.77;3.72;;;;;;;;;;5019280;28;20112;-52
2021/06/03 07:04:51;;;;;;;5.75;3.28;;;;;;;;;;5024186;28;20076;-48
2021/06/03 07:07:17;;;;;;;8.80;3.53;;;;;;;;;;5021221;28;20037;-50
2021/06/03 07:09:43;;;;;;;5.50;3.28;;;;;;;;;;5017484;28;20029;-50
2021/06/03 07:12:10;;;;;;;10.02;3.38;;;;;;;;;;5034164;28;20473;-50
2021/06/03 07:14:36;;;;;;;8.15;3.72;;;;;;;;;;5020913;28;20025;-47
2021/06/03 07:17:02;;;;;;;6.55;3.38;;;;;;;;;;5017799;28;20064;-51
2021/06/03 07:19:28;;;;;;;4.75;3.10;;;;;;;;;;5031915;28;20024;-48
2021/06/03 07:21:54;;;;;;;6.13;3.40;;;;;;;;;;5031530;28;20025;-49
2021/06/03 07:24:20;;;;;;;7.00;3.63;;;;;;;;;;5017501;28;20113;-49
2021/06/03 07:26:46;;;;;;;6.75;3.22;;;;;;;;;;5009303;28;20018;-50
2021/06/03 07:29:12;;;;;;;6.97;3.13;;;;;;;;;;5013236;28;20442;-47
2021/06/03 07:31:38;;;;;;;7.45;3.88;;;;;;;;;;5023944;28;20049;-48
2021/06/03 07:34:05;;;;;;;7.88;3.17;;;;;;;;;;5018640;28;20029;-52
2021/06/03 07:36:32;;;;;;;9.50;3.40;;;;;;;;;;5013447;28;20025;-52
2021/06/03 07:38:58;;;;;;;12.55;3.30;;;;;;;;;;5013589;28;20044;-49
2021/06/03 07:41:24;;;;;;;8.68;3.38;;;;;;;;;;5031770;28;20083;-52
2021/06/03 07:43:50;;;;;;;10.27;3.28;;;;;;;;;;5028682;28;20037;-50
2021/06/03 07:46:16;;;;;;;8.90;3.08;;;;;;;;;;5018571;28;20030;-52
2021/06/03 07:48:42;;;;;;;7.10;2.88;;;;;;;;;;5010696;28;20026;-52
2021/06/03 07:51:10;;;;;;;12.02;2.97;;;;;;;;;;5011771;28;20026;-49
2021/06/03 07:53:36;;;;;;;8.45;3.10;;;;;;;;;;5017741;28;20032;-53
2021/06/03 07:56:02;;;;;;;5.63;2.78;;;;;;;;;;5025255;28;20470;-51
2021/06/03 07:58:28;;;;;;;5.30;3.17;;;;;;;;;;5025360;28;20472;-51
2021/06/03 08:00:54;;;;;;;6.32;2.85;;;;;;;;;;5027077;28;20030;-51
2021/06/03 08:03:20;;;;;;;4.55;3.08;;;;;;;;;;5016153;28;20443;-52
2021/06/03 08:05:46;;;;;;;8.23;3.30;;;;;;;;;;5016020;28;20112;-50
2021/06/03 08:08:12;;;;;;;11.80;3.10;;;;;;;;;;5011415;28;20034;-52
2021/06/03 08:10:40;;;;;;;6.93;2.40;;;;;;;;;;5022383;28;20084;-48
2021/06/03 08:13:09;;;;;;;5.82;2.75;;;;;;;;;;5012505;28;20429;-49
2021/06/03 08:15:37;;;;;;;4.85;2.80;;;;;;;;;;5013370;28;20452;-53
2021/06/03 08:18:03;;;;;;;11.07;3.38;;;;;;;;;;5025581;28;20473;-49
2021/06/03 08:20:34;;;;;;;9.07;2.92;;;;;;;;;;5019714;28;20033;-51
2021/06/03 08:23:00;;;;;;;6.45;2.80;;;;;;;;;;5009906;28;20113;-52
2021/06/03 08:25:26;;;;;;;4.03;2.55;;;;;;;;;;5021384;28;20034;-49
2021/06/03 08:27:53;;;;;;;4.35;2.55;;;;;;;;;;5014282;28;20030;-48
2021/06/03 08:30:19;;;;;;;8.15;2.92;;;;;;;;;;5024662;28;20180;-48
2021/06/03 08:32:46;;;;;;;7.57;3.45;;;;;;;;;;5012226;28;20492;-50
2021/06/03 08:35:15;;;;;;;6.68;3.08;;;;;;;;;;5015498;28;20014;-47
2021/06/03 08:37:45;;;;;;;6.53;2.40;;;;;;;;;;5013435;28;20034;-52
2021/06/03 08:40:12;;;;;;;4.80;2.67;;;;;;;;;;5013394;28;20048;-52
2021/06/03 08:42:38;;;;;;;8.13;2.70;;;;;;;;;;5024304;28;20105;-51
2021/06/03 08:45:05;;;;;;;5.55;2.78;;;;;;;;;;5011028;28;20133;-48
2021/06/03 08:47:32;;;;;;;5.22;2.35;;;;;;;;;;5014593;28;20065;-50
2021/06/03 08:49:58;;;;;;;6.85;2.88;;;;;;;;;;5011828;28;20532;-50
2021/06/03 08:52:24;;;;;;;3.90;2.42;;;;;;;;;;5016420;28;20026;-52
2021/06/03 08:54:54;;;;;;;7.95;2.50;;;;;;;;;;5012040;28;20113;-53
2021/06/03 08:57:20;;;;;;;3.88;2.30;;;;;;;;;;5014803;28;20024;-52
2021/06/03 08:59:46;;;;;;;5.30;2.63;;;;;;;;;;5011544;28;20030;-53
2021/06/03 09:02:12;;;;;;;3.78;2.17;;;;;;;;;;5026864;28;20428;-51
2021/06/03 09:04:40;;;;;;;3.83;2.05;;;;;;;;;;5032342;28;20415;-48
2021/06/03 09:07:26;;;;;;;4.50;2.33;;;;;;;;;;5020702;28;20038;-47
2021/06/03 09:09:52;;;;;;;3.67;2.00;;;;;;;;;;5024513;28;20112;-51
2021/06/03 09:12:18;;;;;;;6.32;2.50;;;;;;;;;;5020496;28;20029;-53
2021/06/03 09:14:44;;;;;;;8.45;2.88;;;;;;;;;;5031814;28;20026;-49
2021/06/03 09:17:12;;;;;;;6.32;2.10;;;;;;;;;;5023496;28;20080;-50
2021/06/03 09:19:53;;;;;;;3.92;2.15;;;;;;;;;;5014389;28;20037;-50
2021/06/03 09:22:42;;;;;;;4.85;2.30;;;;;;;;;;5022868;28;20036;-50
2021/06/03 09:25:40;;;;;;;5.18;2.90;;;;;;;;;;5017793;28;20033;-52
2021/06/03 09:28:22;;;;;;;7.07;2.30;;;;;;;;;;4997824;28;20037;-49
2021/06/03 09:31:02;;;;;;;5.30;2.15;;;;;;;;;;5024659;28;20041;-51
2021/06/03 09:33:42;;;;;;;8.52;2.50;;;;;;;;;;5009452;28;20068;-50
2021/06/03 09:36:10;;;;;;;12.45;2.45;;;;;;;;;;5018292;28;20045;-49
2021/06/03 09:38:43;;;;;;;4.05;2.38;;;;;;;;;;5011831;28;20033;-48
2021/06/03 09:41:09;;;;;;;5.95;2.80;;;;;;;;;;5011079;28;20109;-51
2021/06/03 09:43:35;;;;;;;4.65;2.30;;;;;;;;;;5024265;28;20427;-50
2021/06/03 09:46:02;;;;;;;4.28;2.45;;;;;;;;;;5015298;28;20057;-48
2021/06/03 09:48:34;;;;;;;4.35;2.00;;;;;;;;;;5017046;28;20105;-48
2021/06/03 09:51:19;;;;;;;3.80;2.58;;;;;;;;;;5008933;28;20114;-48
2021/06/03 09:54:00;;;;;;;3.47;1.95;;;;;;;;;;5021969;28;20071;-48
2021/06/03 09:56:27;;;;;;;3.30;2.10;;;;;;;;;;5014811;28;20030;-52
2021/06/03 09:58:54;;;;;;;3.30;2.38;;;;;;;;;;5026721;28;20025;-51
2021/06/03 10:01:39;;;;;;;3.35;2.05;;;;;;;;;;5030017;28;20413;-50
2021/06/03 10:04:06;;;;;;;4.10;2.00;;;;;;;;;;5010780;28;20492;-50
2021/06/03 10:06:32;;;;;;;3.55;1.80;;;;;;;;;;5009932;28;20026;-52
2021/06/03 10:08:58;;;;;;;3.95;2.28;;;;;;;;;;5010533;28;20065;-48
2021/06/03 10:11:48;;;;;;;3.40;1.80;;;;;;;;;;5015598;28;20056;-47
2021/06/03 10:14:16;;;;;;;5.82;2.42;;;;;;;;;;5016674;28;20145;-50
2021/06/03 10:16:43;;;;;;;4.10;1.95;;;;;;;;;;5011466;28;20104;-49
2021/06/03 10:19:19;;;;;;;4.70;1.92;;;;;;;;;;5012176;28;20026;-51
2021/06/03 10:21:46;;;;;;;3.88;1.90;;;;;;;;;;5026924;28;20025;-51
2021/06/03 10:24:12;;;;;;;9.73;2.40;;;;;;;;;;5016982;28;20030;-48
2021/06/03 10:26:57;;;;;;;8.30;2.50;;;;;;;;;;5018354;28;20080;-51
2021/06/03 10:29:23;;;;;;;8.73;2.63;;;;;;;;;;5014273;28;20080;-49
2021/06/03 10:31:49;;;;;;;6.35;2.05;;;;;;;;;;5014346;28;20481;-49
2021/06/03 10:34:15;;;;;;;5.97;2.05;;;;;;;;;;5008243;28;20028;-53
2021/06/03 10:36:43;;;;;;;4.72;2.10;;;;;;;;;;5023032;28;20040;-49
2021/06/03 10:39:10;;;;;;;3.90;2.20;;;;;;;;;;5034619;28;20025;-53
2021/06/03 10:41:36;;;;;;;4.22;1.95;;;;;;;;;;5015062;28;20080;-50
2021/06/03 10:44:05;;;;;;;3.75;2.28;;;;;;;;;;5014078;28;20114;-47
2021/06/03 10:46:31;;;;;;;3.20;2.00;;;;;;;;;;5016784;28;20049;-52
2021/06/03 10:48:57;;;;;;;5.25;2.28;;;;;;;;;;5020667;28;20497;-52
2021/06/03 10:51:24;;;;;;;3.05;1.83;;;;;;;;;;5020510;28;20033;-48
2021/06/03 10:53:50;;;;;;;2.70;1.85;;;;;;;;;;5022009;28;20028;-52
2021/06/03 10:56:26;;;;;;;3.47;1.70;;;;;;;;;;5018183;28;20037;-51
2021/06/03 10:58:53;;;;;;;5.22;2.15;;;;;;;;;;5034433;28;20064;-47
2021/06/03 11:01:20;;;;;;;9.15;1.67;;;;;;;;;;5016900;28;20389;-49
2021/06/03 11:03:51;;;;;;;4.25;1.83;;;;;;;;;;5011640;28;20107;-53
2021/06/03 11:06:19;;;;;;;2.50;1.75;;;;;;;;;;5013587;28;20053;-54
2021/06/03 11:08:52;;;;;;;2.88;1.88;;;;;;;;;;5014021;28;20039;-52
2021/06/03 11:11:18;;;;;;;4.65;1.90;;;;;;;;;;5014882;28;20033;-50
2021/06/03 11:13:47;;;;;;;4.45;1.50;;;;;;;;;;5029855;28;20413;-48
2021/06/03 11:16:21;;;;;;;3.70;1.85;;;;;;;;;;5034232;28;20026;-52
2021/06/03 11:18:49;;;;;;;5.78;2.20;;;;;;;;;;5019526;28;20040;-50
2021/06/03 11:21:35;;;;;;;4.00;1.98;;;;;;;;;;5020985;28;20029;-53
2021/06/03 11:24:05;;;;;;;4.50;1.85;;;;;;;;;;5010648;28;20030;-49
2021/06/03 11:26:40;;;;;;;2.40;1.55;;;;;;;;;;5028962;28;20525;-51
2021/06/03 11:29:13;;;;;;;8.00;2.22;;;;;;;;;;5011043;28;20132;-52
2021/06/03 11:31:43;;;;;;;2.25;1.67;;;;;;;;;;5031019;28;20782;-51
2021/06/03 11:34:09;;;;;;;5.38;2.03;;;;;;;;;;5020851;28;20029;-50
2021/06/03 11:36:36;;;;;;;2.28;1.65;;;;;;;;;;5018350;28;20033;-49
2021/06/03 11:39:05;;;;;;;2.63;1.70;;;;;;;;;;5025521;28;20080;-47
2021/06/03 11:41:32;;;;;;;2.60;1.60;;;;;;;;;;5018280;28;20415;-50
2021/06/03 11:44:11;;;;;;;2.00;1.42;;;;;;;;;;5022293;28;20037;-52
2021/06/03 11:46:49;;;;;;;5.55;1.85;;;;;;;;;;5016074;28;20049;-48
2021/06/03 11:49:33;;;;;;;2.47;1.58;;;;;;;;;;5015584;28;20021;-51
2021/06/03 11:52:12;;;;;;;5.78;1.83;;;;;;;;;;5004367;28;20036;-51
2021/06/03 11:54:55;;;;;;;2.45;1.60;;;;;;;;;;5026532;28;20061;-48
2021/06/03 11:57:22;;;;;;;5.05;1.77;;;;;;;;;;5007406;28;20359;-51
2021/06/03 11:59:59;;;;;;;2.50;1.17;;;;;;;;;;5029312;28;20108;-48
2021/06/03 12:02:32;;;;;;;2.25;1.65;;;;;;;;;;5010312;28;20087;-48
2021/06/03 12:07:40;;;;;;;3.75;1.60;;;;;;;;;;5020737;28;20048;-48
2021/06/03 12:10:06;;;;;;;2.25;1.52;;;;;;;;;;5010741;28;20561;-52
2021/06/03 12:12:32;;;;;;;3.03;1.60;;;;;;;;;;5013569;28;20052;-50
2021/06/03 12:14:58;;;;;;;4.22;1.60;;;;;;;;;;5028385;28;20385;-49
2021/06/03 12:17:25;;;;;;;2.10;1.45;;;;;;;;;;5031498;28;20116;-52
2021/06/03 12:19:52;;;;;;;3.30;1.75;;;;;;;;;;5025979;28;20041;-51
2021/06/03 12:22:20;;;;;;;6.03;1.60;;;;;;;;;;5023448;28;20040;-48
2021/06/03 12:24:48;;;;;;;3.38;1.80;;;;;;;;;;5009344;28;20034;-50
2021/06/03 12:27:19;;;;;;;5.32;1.95;;;;;;;;;;4995094;28;20038;-53
2021/06/03 12:29:45;;;;;;;2.60;1.52;;;;;;;;;;5010547;28;20037;-51
2021/06/03 12:32:12;;;;;;;2.67;1.90;;;;;;;;;;5030619;28;20470;-49
2021/06/03 12:34:38;;;;;;;3.08;1.63;;;;;;;;;;5026530;28;20084;-52
2021/06/03 12:37:23;;;;;;;3.58;1.70;;;;;;;;;;5019792;28;20116;-48
2021/06/03 12:39:50;;;;;;;2.70;1.52;;;;;;;;;;5010234;28;20034;-53
2021/06/03 12:42:20;;;;;;;3.70;1.73;;;;;;;;;;5024762;28;20026;-51
2021/06/03 12:45:06;;;;;;;1.55;1.20;;;;;;;;;;5013508;28;20112;-54
2021/06/03 12:47:34;;;;;;;4.45;1.30;;;;;;;;;;5013889;28;20030;-51
2021/06/03 12:50:07;;;;;;;6.03;1.58;;;;;;;;;;5012055;28;20361;-49
2021/06/03 12:52:33;;;;;;;3.10;1.50;;;;;;;;;;5013231;28;20508;-48
2021/06/03 12:55:00;;;;;;;2.30;1.50;;;;;;;;;;5011833;28;20096;-50
2021/06/03 12:57:26;;;;;;;3.35;1.40;;;;;;;;;;5018623;28;20025;-53
2021/06/03 12:59:53;;;;;;;3.42;1.73;;;;;;;;;;5021196;28;20477;-48
2021/06/03 13:02:20;;;;;;;2.08;1.20;;;;;;;;;;5018932;28;20030;-51
2021/06/03 13:04:50;;;;;;;2.47;1.23;;;;;;;;;;5015064;28;20819;-49
2021/06/03 13:07:26;;;;;;;4.10;1.45;;;;;;;;;;5010930;28;20492;-52
2021/06/03 13:10:00;;;;;;;3.40;1.48;;;;;;;;;;5026114;28;20048;-47
2021/06/03 13:12:26;;;;;;;1.50;1.10;;;;;;;;;;5021223;28;20052;-50
2021/06/03 13:14:53;;;;;;;4.78;1.40;;;;;;;;;;5013815;28;20084;-49
2021/06/03 13:17:22;;;;;;;3.97;1.48;;;;;;;;;;5010988;28;20026;-50
2021/06/03 13:19:49;;;;;;;2.70;1.70;;;;;;;;;;5018878;28;20037;-51
2021/06/03 13:22:15;;;;;;;3.70;1.52;;;;;;;;;;5020618;28;20460;-48
2021/06/03 13:24:43;;;;;;;1.90;1.15;;;;;;;;;;5010864;28;20033;-52
2021/06/03 13:27:10;;;;;;;3.50;1.30;;;;;;;;;;5022277;28;20022;-51
2021/06/03 13:29:44;;;;;;;3.05;1.50;;;;;;;;;;5011163;28;20091;-51
2021/06/03 13:32:10;;;;;;;2.88;1.45;;;;;;;;;;5024205;28;20054;-49
2021/06/03 13:34:38;;;;;;;4.32;1.58;;;;;;;;;;5018181;28;20039;-52
2021/06/03 13:37:06;;;;;;;2.60;1.40;;;;;;;;;;5013055;28;20058;-48
2021/06/03 13:39:34;;;;;;;4.20;1.42;;;;;;;;;;5030237;28;20080;-50
2021/06/03 13:42:06;;;;;;;2.40;1.50;;;;;;;;;;5020673;28;20215;-51
2021/06/03 13:44:32;;;;;;;5.82;1.20;;;;;;;;;;5010991;28;20065;-51
2021/06/03 13:46:58;;;;;;;4.53;1.85;;;;;;;;;;5009938;28;20050;-53
2021/06/03 13:49:25;;;;;;;4.90;1.20;;;;;;;;;;5022489;28;20049;-49
2021/06/03 13:52:01;;;;;;;3.03;1.67;;;;;;;;;;5024919;28;20540;-50
2021/06/03 13:54:27;;;;;;;4.65;1.23;;;;;;;;;;5024011;28;20041;-53
2021/06/03 13:56:53;;;;;;;2.50;1.52;;;;;;;;;;5016360;28;20018;-51
2021/06/03 13:59:19;;;;;;;2.97;1.20;;;;;;;;;;5034221;28;20037;-49
2021/06/03 14:01:47;;;;;;;1.98;1.30;;;;;;;;;;5028512;28;20041;-52
2021/06/03 14:04:22;;;;;;;3.30;1.50;;;;;;;;;;5024243;28;20025;-53
2021/06/03 14:06:50;;;;;;;2.63;1.10;;;;;;;;;;5020453;28;20127;-48
2021/06/03 14:09:17;;;;;;;3.80;1.10;;;;;;;;;;5015180;28;20107;-52
2021/06/03 14:12:03;;;;;;;3.75;1.30;;;;;;;;;;5028044;28;20051;-49
2021/06/03 14:14:31;;;;;;;2.35;1.15;;;;;;;;;;5028735;28;20041;-50
2021/06/03 14:17:01;;;;;;;1.50;0.93;;;;;;;;;;5024337;28;20037;-48
2021/06/03 14:19:39;;;;;;;2.85;0.98;;;;;;;;;;5014948;28;20026;-48
2021/06/03 14:22:08;;;;;;;2.80;1.30;;;;;;;;;;5032115;28;20040;-53
2021/06/03 14:24:36;;;;;;;3.63;1.30;;;;;;;;;;5025820;28;20480;-53
2021/06/03 14:27:09;;;;;;;1.67;0.90;;;;;;;;;;5015589;28;20140;-54
2021/06/03 14:29:43;;;;;;;2.35;1.17;;;;;;;;;;5027654;28;20033;-50
2021/06/03 14:32:10;;;;;;;1.60;1.05;;;;;;;;;;5028799;28;20072;-51
2021/06/03 14:34:36;;;;;;;2.30;1.00;;;;;;;;;;5019857;28;20482;-51
2021/06/03 14:37:04;;;;;;;2.10;1.35;;;;;;;;;;5021912;28;20067;-51
2021/06/03 14:39:49;;;;;;;3.08;1.40;;;;;;;;;;5034300;28;20018;-52
2021/06/03 14:42:25;;;;;;;3.10;1.17;;;;;;;;;;5022888;28;20076;-54
2021/06/03 14:44:52;;;;;;;5.03;1.40;;;;;;;;;;5013197;28;20130;-54
2021/06/03 14:47:18;;;;;;;4.45;1.75;;;;;;;;;;5013679;28;20030;-51
2021/06/03 14:49:44;;;;;;;2.05;1.25;;;;;;;;;;5015182;28;20359;-50
2021/06/03 14:52:10;;;;;;;4.63;1.40;;;;;;;;;;5013914;28;20120;-49
2021/06/03 14:54:36;;;;;;;1.75;1.15;;;;;;;;;;5016500;28;20026;-49